Melrose, Massachusetts
Current Conditions -  °F | °C
As of 6:54 PM on Friday 21 Nov 2014 (Local Time) from KBOS Reporting Station
Clear Clear  
Wind Chill: 22°   Ceiling: Unl
Heat Index: 31°   Visibility: 10mi
Dew Point:   Wind: 12mph
Humidity: 35%   Direction: 290°WNW
Pressure: 30.35"   Gusts: NA
Location:  42.46°N, 71.06°W
Report Text: KBOS 212354Z 29010KT 10SM CLR M01/M14 A3035 RMK AO2 SLP277 T10061144 10022 21006 51036
Loading
Personal Weather Stations






























Interactive Weather Map New forecast layout! Learn more

10-Day Weather Forecast

Advertisements
Track Severe Weather on mobile